Time;durP1;ratioP1;P1;durP2;ratioP2;P2;SDS_P1;SDS_P2;PMS_P1;PMS_P2;Temp;Humidity;BMP_temperature;BMP_pressure;BME280_temperature;BME280_humidity;BME280_pressure;Samples;Min_cycle;Max_cycle;Signal;HPM_P1;HPM_P2
2022/09/03 00:02:46;;;;;;;3.58;2.67;;;13.70;99.90;;;;;;8297276;28;20106;-80
2022/09/03 00:07:00;;;;;;;2.78;2.58;;;13.70;99.90;;;;;;8293426;28;20096;-81
2022/09/03 00:11:13;;;;;;;2.95;2.60;;;13.50;99.90;;;;;;8291182;28;20488;-82
2022/09/03 00:15:20;;;;;;;2.90;2.65;;;13.20;99.90;;;;;;8317059;28;20057;-82
2022/09/03 00:19:26;;;;;;;3.88;2.70;;;13.10;99.90;;;;;;8293474;28;20030;-81
2022/09/03 00:23:28;;;;;;;3.92;3.17;;;13.10;99.90;;;;;;8322301;28;20151;-80
2022/09/03 00:27:32;;;;;;;4.28;3.40;;;13.10;99.90;;;;;;8327386;28;20079;-80
2022/09/03 00:31:41;;;;;;;5.25;3.45;;;13.10;99.90;;;;;;8322393;28;20472;-82
2022/09/03 00:36:00;;;;;;;3.42;2.90;;;12.80;99.90;;;;;;8297443;28;20030;-81
2022/09/03 00:40:02;;;;;;;3.90;3.47;;;12.70;99.90;;;;;;8314627;28;20026;-81
2022/09/03 00:44:37;;;;;;;5.53;3.55;;;12.40;99.90;;;;;;8293724;28;20018;-82
2022/09/03 00:48:58;;;;;;;3.45;3.15;;;12.40;99.90;;;;;;8302302;28;20110;-80
2022/09/03 00:53:17;;;;;;;3.83;3.42;;;12.20;99.90;;;;;;8306476;28;20025;-82
2022/09/03 00:57:26;;;;;;;3.72;3.33;;;12.10;99.90;;;;;;8299325;28;20665;-82
2022/09/03 01:01:49;;;;;;;6.00;3.38;;;12.30;99.90;;;;;;8300171;28;20034;-80
2022/09/03 01:06:15;;;;;;;4.43;3.38;;;12.30;99.90;;;;;;8313273;28;20033;-82
2022/09/03 01:10:38;;;;;;;5.80;3.42;;;12.50;99.90;;;;;;8294042;28;20030;-82
2022/09/03 01:14:42;;;;;;;5.43;3.80;;;12.60;99.90;;;;;;8310387;28;20185;-82
2022/09/03 01:18:52;;;;;;;5.68;3.78;;;12.50;99.90;;;;;;8320552;28;20091;-80
2022/09/03 01:22:53;;;;;;;5.75;3.75;;;12.40;99.90;;;;;;8311748;28;20033;-82
2022/09/03 01:27:04;;;;;;;3.75;3.30;;;12.40;99.90;;;;;;8291873;28;20021;-81
2022/09/03 01:31:36;;;;;;;4.07;3.40;;;12.30;99.90;;;;;;8296461;28;20014;-81
2022/09/03 01:35:42;;;;;;;;;;;12.20;99.90;;;;;;8289064;28;20030;-81
2022/09/03 01:40:02;;;;;;;4.07;3.67;;;12.00;99.90;;;;;;8294161;28;19909;-82
2022/09/03 01:44:20;;;;;;;4.07;3.67;;;12.00;99.90;;;;;;8318214;28;20022;-81
2022/09/03 01:48:42;;;;;;;6.60;3.28;;;12.00;99.90;;;;;;8303656;28;20028;-82
2022/09/03 01:52:45;;;;;;;4.65;4.05;;;11.90;99.90;;;;;;8282985;28;20038;-81
2022/09/03 01:57:05;;;;;;;7.50;4.22;;;11.80;99.90;;;;;;8283299;28;20044;-82
2022/09/03 02:01:14;;;;;;;5.35;3.45;;;11.80;99.90;;;;;;8291063;28;20093;-82
2022/09/03 02:05:23;;;;;;;6.20;3.97;;;11.70;99.90;;;;;;8285187;28;20108;-80
2022/09/03 02:09:24;;;;;;;5.07;4.00;;;11.70;99.90;;;;;;8280644;28;20018;-82
2022/09/03 02:13:36;;;;;;;5.13;3.83;;;11.60;99.90;;;;;;8294369;28;20022;-82
2022/09/03 02:17:37;;;;;;;13.23;4.60;;;11.40;99.90;;;;;;8272658;28;20113;-81
2022/09/03 02:21:50;;;;;;;5.35;4.55;;;11.40;99.90;;;;;;8287551;28;20599;-82
2022/09/03 02:25:55;;;;;;;7.60;4.78;;;11.60;99.90;;;;;;8297400;28;20014;-82
2022/09/03 02:29:57;;;;;;;5.18;4.68;;;11.60;99.90;;;;;;8293223;28;20118;-82
2022/09/03 02:33:57;;;;;;;5.72;4.82;;;11.70;99.90;;;;;;8298204;28;20033;-82
2022/09/03 02:38:08;;;;;;;5.85;4.72;;;11.80;99.90;;;;;;8302750;28;20490;-81
2022/09/03 02:42:12;;;;;;;5.82;4.40;;;11.80;99.90;;;;;;8303230;28;20029;-80
2022/09/03 02:46:26;;;;;;;5.90;5.00;;;12.00;99.90;;;;;;8301153;28;20022;-82
2022/09/03 02:50:27;;;;;;;5.53;4.68;;;12.10;99.90;;;;;;8290689;28;20033;-80
2022/09/03 02:54:27;;;;;;;5.18;4.68;;;12.20;99.90;;;;;;8331813;28;20065;-81
2022/09/03 02:58:30;;;;;;;5.47;4.30;;;12.40;99.90;;;;;;8317442;28;20105;-82
2022/09/03 03:02:30;;;;;;;5.72;4.78;;;12.70;99.90;;;;;;8323898;28;20017;-82
2022/09/03 03:06:32;;;;;;;5.40;4.57;;;12.70;99.90;;;;;;8305490;28;20041;-81
2022/09/03 03:10:32;;;;;;;6.43;4.68;;;12.60;99.90;;;;;;8282065;28;20033;-81
2022/09/03 03:14:33;;;;;;;5.50;4.28;;;12.40;99.90;;;;;;8301024;28;20080;-81
2022/09/03 03:18:34;;;;;;;7.50;4.55;;;12.20;99.90;;;;;;8287367;28;20028;-81
2022/09/03 03:22:34;;;;;;;7.65;5.90;;;12.00;99.90;;;;;;8320141;28;20017;-80
2022/09/03 03:26:35;;;;;;;7.50;5.80;;;12.00;99.90;;;;;;8296458;28;20510;-80
2022/09/03 03:30:39;;;;;;;8.55;5.57;;;11.80;99.90;;;;;;8308472;28;20026;-82
2022/09/03 03:34:39;;;;;;;10.38;5.43;;;11.80;99.90;;;;;;8303363;28;20026;-79
2022/09/03 03:38:42;;;;;;;7.15;5.40;;;11.80;99.90;;;;;;8300927;28;20387;-82
2022/09/03 03:42:42;;;;;;;5.55;4.95;;;11.90;99.90;;;;;;8297659;28;20022;-82
2022/09/03 03:46:44;;;;;;;8.10;5.25;;;11.90;99.90;;;;;;8314748;28;20017;-81
2022/09/03 03:50:46;;;;;;;5.70;5.15;;;12.10;99.90;;;;;;8304238;28;20068;-80
2022/09/03 03:54:48;;;;;;;7.03;5.07;;;12.20;99.90;;;;;;8301561;28;20080;-80
2022/09/03 03:58:50;;;;;;;6.82;5.57;;;12.10;99.90;;;;;;8292574;28;20022;-82
2022/09/03 04:02:51;;;;;;;6.20;5.55;;;12.20;99.90;;;;;;8307511;28;20022;-81
2022/09/03 04:06:51;;;;;;;6.32;5.72;;;12.30;99.90;;;;;;8316079;28;20037;-82
2022/09/03 04:10:52;;;;;;;6.22;5.60;;;12.40;99.90;;;;;;8310430;28;20030;-81
2022/09/03 04:14:53;;;;;;;5.70;5.10;;;12.50;99.90;;;;;;8307376;28;20022;-82
2022/09/03 04:18:55;;;;;;;5.78;5.18;;;12.60;99.90;;;;;;8288125;28;20026;-82
2022/09/03 04:23:00;;;;;;;5.95;5.35;;;12.80;99.90;;;;;;8314453;28;20029;-82
2022/09/03 04:27:00;;;;;;;9.93;6.10;;;12.90;99.90;;;;;;8305760;28;20021;-79
2022/09/03 04:31:03;;;;;;;9.20;5.75;;;12.80;99.90;;;;;;8273039;28;20189;-81
2022/09/03 04:35:03;;;;;;;12.57;5.90;;;12.90;99.90;;;;;;8297505;28;20021;-81
2022/09/03 04:39:04;;;;;;;9.80;6.05;;;13.20;99.90;;;;;;8298546;28;20029;-82
2022/09/03 04:43:05;;;;;;;9.40;6.13;;;13.20;99.90;;;;;;8286230;28;20034;-80
2022/09/03 04:47:06;;;;;;;9.48;5.97;;;13.10;99.90;;;;;;8290227;28;20064;-81
2022/09/03 04:51:15;;;;;;;8.32;6.13;;;13.10;99.90;;;;;;8316598;28;20029;-80
2022/09/03 04:55:15;;;;;;;7.32;6.40;;;12.90;99.90;;;;;;8311588;28;20022;-80
2022/09/03 04:59:16;;;;;;;10.05;6.78;;;12.70;99.90;;;;;;8263999;28;20033;-80
2022/09/03 05:03:16;;;;;;;7.28;6.57;;;12.70;99.90;;;;;;8266106;28;20034;-79
2022/09/03 05:07:19;;;;;;;9.00;6.78;;;12.80;99.90;;;;;;8273621;28;20113;-80
2022/09/03 05:11:20;;;;;;;8.80;6.70;;;13.00;99.90;;;;;;8281868;28;20027;-80
2022/09/03 05:15:21;;;;;;;9.13;6.75;;;12.90;99.90;;;;;;8293453;28;20037;-80
2022/09/03 05:19:21;;;;;;;8.88;6.95;;;12.90;99.90;;;;;;8285625;28;20031;-81
2022/09/03 05:23:22;;;;;;;9.85;6.40;;;13.20;99.90;;;;;;8277880;28;20410;-80
2022/09/03 05:27:22;;;;;;;8.07;7.05;;;13.30;99.90;;;;;;8271029;28;20029;-79
2022/09/03 05:31:26;;;;;;;10.35;7.32;;;13.20;99.90;;;;;;8268046;28;20501;-80
2022/09/03 05:35:27;;;;;;;8.95;7.63;;;13.20;99.90;;;;;;8267131;28;20292;-81
2022/09/03 05:39:27;;;;;;;8.57;7.68;;;13.30;99.90;;;;;;8314473;28;20037;-81
2022/09/03 05:43:29;;;;;;;7.60;6.80;;;13.40;99.90;;;;;;8288552;28;20523;-81
2022/09/03 05:47:29;;;;;;;12.90;6.90;;;13.60;99.90;;;;;;8255067;28;20033;-80
2022/09/03 05:51:30;;;;;;;6.97;6.28;;;13.90;99.90;;;;;;8295989;28;20040;-81
2022/09/03 05:55:31;;;;;;;6.55;5.85;;;14.10;99.90;;;;;;8304645;28;20030;-79
2022/09/03 05:59:31;;;;;;;8.48;6.05;;;14.20;99.90;;;;;;8292722;28;20492;-81
2022/09/03 06:03:32;;;;;;;9.63;6.97;;;14.40;99.90;;;;;;8299180;28;20391;-80
2022/09/03 06:07:33;;;;;;;7.28;6.57;;;14.40;99.90;;;;;;8292366;28;20022;-80
2022/09/03 06:11:34;;;;;;;10.73;6.80;;;14.60;99.90;;;;;;8290627;28;20037;-80
2022/09/03 06:15:35;;;;;;;10.15;7.03;;;14.70;99.90;;;;;;8313646;28;20043;-80
2022/09/03 06:19:36;;;;;;;10.23;7.07;;;14.80;99.90;;;;;;8300270;28;20030;-80
2022/09/03 06:23:36;;;;;;;7.93;6.78;;;15.10;99.90;;;;;;8289989;28;20022;-80
2022/09/03 06:27:37;;;;;;;10.98;7.18;;;15.40;99.90;;;;;;8293796;28;20022;-81
2022/09/03 06:31:38;;;;;;;7.85;5.55;;;15.80;99.90;;;;;;8297650;28;20535;-81
2022/09/03 06:35:40;;;;;;;7.03;5.50;;;16.20;99.90;;;;;;8297173;28;20058;-81
2022/09/03 06:39:41;;;;;;;4.95;4.30;;;16.40;99.90;;;;;;8294083;28;20033;-80
2022/09/03 06:43:42;;;;;;;5.55;4.50;;;16.60;99.90;;;;;;8279732;28;20653;-79
2022/09/03 06:47:42;;;;;;;4.57;4.13;;;16.60;99.90;;;;;;8279194;28;20021;-79
2022/09/03 06:51:43;;;;;;;5.07;3.85;;;16.30;99.90;;;;;;8276421;28;20040;-81
2022/09/03 06:55:52;;;;;;;4.97;4.30;;;16.30;99.90;;;;;;8304939;28;20029;-80
2022/09/03 06:59:54;;;;;;;6.35;4.47;;;16.40;99.90;;;;;;8282166;28;20125;-79
2022/09/03 07:03:57;;;;;;;5.43;4.57;;;16.50;99.90;;;;;;8301556;28;20014;-79
2022/09/03 07:07:57;;;;;;;6.25;3.90;;;16.60;99.90;;;;;;8289608;28;20681;-79
2022/09/03 07:11:58;;;;;;;4.72;3.50;;;16.80;99.90;;;;;;8272149;28;20026;-80
2022/09/03 07:16:04;;;;;;;3.85;2.55;;;17.10;99.90;;;;;;8291565;28;20025;-79
2022/09/03 07:20:05;;;;;;;3.13;2.83;;;17.30;99.90;;;;;;8311292;28;20033;-81
2022/09/03 07:24:06;;;;;;;3.47;2.42;;;17.60;99.90;;;;;;8299720;28;20017;-80
2022/09/03 07:28:06;;;;;;;2.47;2.25;;;17.80;99.90;;;;;;8276301;28;20049;-80
2022/09/03 07:32:07;;;;;;;2.65;2.45;;;18.00;99.90;;;;;;8284909;28;20022;-80
2022/09/03 07:36:14;;;;;;;2.17;1.90;;;18.30;99.90;;;;;;8288920;28;20101;-81
2022/09/03 07:40:16;;;;;;;2.28;1.95;;;18.50;99.90;;;;;;8290115;28;20030;-79
2022/09/03 07:44:18;;;;;;;1.90;1.30;;;19.00;99.90;;;;;;8275914;28;20026;-82
2022/09/03 07:48:18;;;;;;;1.73;1.42;;;19.50;99.90;;;;;;8283186;28;20019;-80
2022/09/03 07:52:19;;;;;;;2.45;1.30;;;19.90;99.90;;;;;;8279341;28;20029;-81
2022/09/03 07:56:20;;;;;;;1.92;1.20;;;20.20;99.90;;;;;;8298974;28;20106;-80
2022/09/03 08:00:21;;;;;;;1.75;1.50;;;20.00;99.90;;;;;;8297553;28;20049;-82
2022/09/03 08:04:21;;;;;;;1.50;1.33;;;20.00;99.90;;;;;;8289949;28;20022;-82
2022/09/03 08:08:22;;;;;;;1.40;1.23;;;19.90;99.90;;;;;;8304413;28;20014;-82
2022/09/03 08:12:23;;;;;;;1.60;1.50;;;19.70;99.90;;;;;;8298661;28;20059;-82
2022/09/03 08:16:24;;;;;;;1.50;1.30;;;19.70;99.90;;;;;;8284064;28;20018;-80
2022/09/03 08:20:25;;;;;;;1.70;1.58;;;19.40;99.90;;;;;;8307545;28;20087;-82
2022/09/03 08:24:26;;;;;;;1.70;1.60;;;19.20;99.90;;;;;;8288801;28;20034;-81
2022/09/03 08:28:27;;;;;;;1.98;1.70;;;19.00;99.90;;;;;;8284391;28;20083;-81
2022/09/03 08:32:27;;;;;;;1.85;1.63;;;18.70;99.90;;;;;;8294713;28;20467;-81
2022/09/03 08:36:30;;;;;;;2.28;2.00;;;18.40;99.90;;;;;;8312432;28;20238;-82
2022/09/03 08:40:33;;;;;;;2.22;1.80;;;18.20;99.90;;;;;;8287898;28;20045;-80
2022/09/03 08:44:46;;;;;;;2.22;1.92;;;18.50;99.90;;;;;;8279896;28;20499;-83
2022/09/03 08:48:47;;;;;;;2.45;2.22;;;18.30;99.90;;;;;;8309530;28;20065;-83
2022/09/03 08:52:50;;;;;;;2.40;1.90;;;18.40;99.90;;;;;;8288523;28;20032;-83
2022/09/03 08:56:51;;;;;;;2.42;1.95;;;18.80;99.90;;;;;;8308837;28;20032;-83
2022/09/03 09:01:02;;;;;;;2.67;1.85;;;19.40;99.90;;;;;;8318240;28;20042;-84
2022/09/03 09:05:15;;;;;;;2.20;1.77;;;20.20;99.90;;;;;;8301900;28;20018;-84
2022/09/03 09:09:19;;;;;;;2.88;2.00;;;20.90;99.90;;;;;;8320625;28;20404;-84
2022/09/03 09:13:37;;;;;;;6.00;2.67;;;22.00;99.90;;;;;;8305618;28;20286;-84
2022/09/03 09:17:59;;;;;;;1.80;1.70;;;22.80;99.90;;;;;;8282018;28;20022;-82
2022/09/03 09:22:03;;;;;;;1.73;1.30;;;23.30;99.90;;;;;;8290312;28;20042;-84
2022/09/03 09:26:14;;;;;;;1.13;1.02;;;24.00;99.90;;;;;;8320240;28;20025;-84
2022/09/03 09:30:16;;;;;;;1.40;1.20;;;23.40;99.90;;;;;;8299973;28;20037;-84
2022/09/03 09:34:17;;;;;;;1.52;1.30;;;22.80;99.90;;;;;;8303331;28;20025;-83
2022/09/03 09:38:28;;;;;;;1.30;1.20;;;22.50;99.90;;;;;;8294137;28;20160;-83
2022/09/03 09:42:30;;;;;;;2.58;1.20;;;22.60;99.90;;;;;;8309729;28;20034;-83
2022/09/03 09:46:41;;;;;;;2.45;1.27;;;23.50;99.90;;;;;;8273601;28;20101;-85
2022/09/03 09:50:42;;;;;;;1.60;1.30;;;24.10;99.90;;;;;;8300829;28;20030;-84
2022/09/03 09:54:47;;;;;;;1.20;1.10;;;24.20;99.90;;;;;;8282006;28;20026;-84
2022/09/03 09:58:48;;;;;;;1.25;1.00;;;24.70;99.90;;;;;;8309121;28;20032;-84
2022/09/03 10:02:53;;;;;;;1.17;1.08;;;25.20;99.90;;;;;;8308783;28;20025;-84
2022/09/03 10:06:56;;;;;;;1.00;0.90;;;25.10;99.90;;;;;;8297643;28;20029;-84
2022/09/03 10:10:56;;;;;;;5.22;1.23;;;25.00;99.90;;;;;;8300329;28;20122;-84
2022/09/03 10:15:22;;;;;;;1.40;1.15;;;24.90;99.90;;;;;;8274777;28;20026;-84
2022/09/03 10:19:33;;;;;;;1.45;1.35;;;24.40;99.90;;;;;;8303423;28;20438;-84
2022/09/03 10:24:14;;;;;;;4.00;2.28;;;25.50;99.90;;;;;;8289103;28;20025;-84
2022/09/03 10:28:15;;;;;;;4.00;1.60;;;27.10;99.90;;;;;;8303632;28;20607;-82
2022/09/03 10:32:22;;;;;;;1.10;1.00;;;27.20;99.90;;;;;;8300188;28;20279;-83
2022/09/03 10:36:27;;;;;;;2.67;1.10;;;27.60;99.90;;;;;;8301558;28;20084;-84
2022/09/03 10:40:40;;;;;;;1.33;1.10;;;27.90;99.90;;;;;;8335594;28;20033;-84
2022/09/03 10:45:14;;;;;;;1.50;1.40;;;28.50;99.90;;;;;;8303309;28;20057;-83
2022/09/03 10:49:42;;;;;;;1.38;1.23;;;27.60;99.90;;;;;;8308933;28;20395;-84
2022/09/03 10:54:01;;;;;;;1.63;1.15;;;28.00;99.90;;;;;;8307825;28;20026;-84
2022/09/03 10:58:11;;;;;;;1.35;0.93;;;28.80;99.90;;;;;;8313347;28;20117;-84
2022/09/03 11:02:41;;;;;;;1.38;1.02;;;29.40;99.90;;;;;;8330897;28;20053;-84
2022/09/03 11:07:00;;;;;;;2.08;1.25;;;29.20;99.90;;;;;;8307772;28;20029;-83
2022/09/03 11:11:20;;;;;;;1.88;1.33;;;28.90;99.90;;;;;;8318432;28;20042;-84
2022/09/03 11:15:36;;;;;;;2.75;1.38;;;27.60;99.90;;;;;;8292212;28;20091;-83
2022/09/03 11:19:50;;;;;;;3.17;1.50;;;28.10;99.90;;;;;;8304069;28;20038;-83
2022/09/03 11:24:13;;;;;;;1.30;1.20;;;28.80;99.90;;;;;;8294333;28;20030;-82
2022/09/03 11:28:28;;;;;;;1.45;1.20;;;29.30;99.90;;;;;;8276925;28;20072;-83
2022/09/03 11:32:57;;;;;;;1.30;1.20;;;29.00;99.90;;;;;;8289405;28;20033;-83
2022/09/03 11:37:27;;;;;;;3.70;1.17;;;28.90;99.90;;;;;;8311299;28;20030;-84
2022/09/03 11:41:36;;;;;;;1.30;1.20;;;27.10;99.90;;;;;;8297313;28;20033;-84
2022/09/03 11:45:37;;;;;;;4.47;1.30;;;25.80;99.90;;;;;;8302759;28;20128;-83
2022/09/03 11:49:44;;;;;;;2.38;1.38;;;24.90;99.90;;;;;;8288888;28;20049;-83
2022/09/03 11:54:00;;;;;;;2.45;1.00;;;24.00;99.90;;;;;;8299292;28;20029;-82
2022/09/03 11:58:19;;;;;;;1.23;0.98;;;22.20;99.90;;;;;;8267215;28;20030;-80
2022/09/03 12:02:33;;;;;;;3.13;1.10;;;19.70;99.90;;;;;;8286892;28;20141;-82
2022/09/03 12:06:58;;;;;;;1.73;1.00;;;18.70;99.90;;;;;;8283465;28;20435;-82
2022/09/03 12:11:24;;;;;;;2.00;0.98;;;18.70;99.90;;;;;;8286011;28;20029;-81
2022/09/03 12:15:44;;;;;;;2.03;1.10;;;18.70;99.90;;;;;;8297866;28;20029;-82
2022/09/03 12:19:56;;;;;;;4.88;1.35;;;18.70;99.90;;;;;;8273961;28;20026;-82
2022/09/03 12:23:57;;;;;;;2.75;1.23;;;18.70;99.90;;;;;;8265473;28;20025;-82
2022/09/03 12:28:03;;;;;;;2.72;1.40;;;18.90;99.90;;;;;;8281684;28;20495;-82
2022/09/03 12:32:07;;;;;;;1.73;1.20;;;19.60;99.90;;;;;;8305702;28;20023;-83
2022/09/03 12:36:08;;;;;;;3.53;1.60;;;20.10;99.90;;;;;;8292188;28;20022;-82
2022/09/03 12:40:20;;;;;;;1.60;1.20;;;20.70;99.90;;;;;;8300458;28;20091;-82
2022/09/03 12:44:28;;;;;;;2.15;1.30;;;21.40;99.90;;;;;;8300472;28;20395;-82
2022/09/03 12:48:28;;;;;;;1.92;1.20;;;22.90;99.90;;;;;;8293755;28;20036;-83
2022/09/03 12:52:35;;;;;;;1.67;1.20;;;23.80;99.90;;;;;;8294383;28;20045;-83
2022/09/03 12:56:37;;;;;;;1.38;1.25;;;24.10;99.90;;;;;;8274825;28;20036;-84
2022/09/03 13:00:45;;;;;;;1.42;1.30;;;23.60;99.90;;;;;;8295507;28;20034;-84
2022/09/03 13:04:46;;;;;;;1.45;1.10;;;23.10;99.90;;;;;;8296023;28;20407;-84
2022/09/03 13:08:48;;;;;;;1.40;1.30;;;24.60;99.90;;;;;;8282147;28;20550;-84
2022/09/03 13:12:49;;;;;;;2.42;1.30;;;24.50;99.90;;;;;;8279623;28;20551;-83
2022/09/03 13:17:26;;;;;;;3.47;1.23;;;24.60;99.90;;;;;;8278317;23;20051;-80
2022/09/03 13:21:33;;;;;;;1.20;1.10;;;27.30;99.90;;;;;;8211478;28;20053;-79
2022/09/03 13:25:55;;;;;;;1.30;1.20;;;27.00;99.90;;;;;;8239513;28;20028;-81
2022/09/03 13:30:18;;;;;;;2.28;1.10;;;28.70;99.90;;;;;;8248535;28;20077;-80
2022/09/03 13:34:34;;;;;;;1.38;1.27;;;29.90;99.90;;;;;;8243726;28;20030;-79
2022/09/03 13:38:41;;;;;;;1.45;1.30;;;29.60;99.90;;;;;;8225319;28;20030;-79
2022/09/03 13:42:49;;;;;;;1.23;1.13;;;28.80;99.90;;;;;;8243765;28;20037;-80
2022/09/03 13:46:54;;;;;;;1.83;1.40;;;27.00;99.90;;;;;;8245330;28;20022;-80
2022/09/03 13:51:23;;;;;;;2.95;1.42;;;24.50;99.90;;;;;;8242902;28;20089;-80
2022/09/03 13:55:36;;;;;;;2.05;1.73;;;23.10;99.90;;;;;;8242388;28;20037;-80
2022/09/03 13:59:49;;;;;;;1.63;1.52;;;22.60;99.90;;;;;;8245108;28;20046;-80
2022/09/03 14:03:54;;;;;;;3.72;1.65;;;22.20;99.90;;;;;;8244810;28;20101;-79
2022/09/03 14:08:12;;;;;;;1.83;1.65;;;22.00;99.90;;;;;;8242888;28;20112;-79
2022/09/03 14:12:13;;;;;;;1.80;1.50;;;22.20;99.90;;;;;;8228690;28;20027;-79
2022/09/03 14:16:32;;;;;;;3.13;1.70;;;22.30;99.90;;;;;;8224493;28;20035;-80
2022/09/03 14:20:58;;;;;;;2.85;1.80;;;22.20;99.90;;;;;;8227694;28;20077;-80
2022/09/03 14:25:09;;;;;;;2.42;1.88;;;21.70;99.90;;;;;;8242755;28;20037;-80
2022/09/03 14:29:10;;;;;;;2.45;1.80;;;21.40;99.90;;;;;;8245000;28;20030;-81
2022/09/03 14:33:49;;;;;;;2.58;1.52;;;21.50;99.90;;;;;;8233674;28;20026;-79
2022/09/03 14:38:30;;;;;;;1.83;1.50;;;21.50;99.90;;;;;;8234304;28;20039;-79
2022/09/03 14:42:57;;;;;;;2.10;1.90;;;21.20;99.90;;;;;;8235231;28;20400;-81
2022/09/03 14:47:06;;;;;;;2.30;1.80;;;21.00;99.90;;;;;;8252782;28;20027;-80
2022/09/03 14:51:24;;;;;;;1.85;1.63;;;20.60;99.90;;;;;;8249249;28;20513;-80
2022/09/03 14:55:49;;;;;;;1.85;1.65;;;20.50;99.90;;;;;;8234497;28;20027;-80
2022/09/03 15:00:16;;;;;;;1.83;1.65;;;20.70;99.90;;;;;;8246665;28;20030;-80
2022/09/03 15:04:27;;;;;;;1.88;1.67;;;21.40;99.90;;;;;;8246097;28;20408;-81
2022/09/03 15:08:57;;;;;;;2.63;1.30;;;21.90;99.90;;;;;;8245893;28;20031;-80
2022/09/03 15:13:07;;;;;;;1.57;1.37;;;21.90;99.90;;;;;;8242524;28;20026;-80
2022/09/03 15:17:26;;;;;;;1.27;1.17;;;21.40;99.90;;;;;;8248842;28;20032;-80
2022/09/03 15:21:39;;;;;;;1.60;1.25;;;21.40;99.90;;;;;;8245041;28;20217;-80
2022/09/03 15:25:57;;;;;;;1.95;1.30;;;21.60;99.90;;;;;;8230658;28;20238;-80
2022/09/03 15:30:08;;;;;;;1.98;1.20;;;21.90;99.90;;;;;;8238618;28;20030;-81
2022/09/03 15:34:34;;;;;;;1.92;1.30;;;23.10;99.90;;;;;;8248617;28;20050;-80
2022/09/03 15:38:41;;;;;;;2.10;1.50;;;27.30;99.90;;;;;;8242888;28;20027;-80
2022/09/03 15:42:45;;;;;;;1.30;1.20;;;29.80;99.90;;;;;;8241839;28;20026;-80
2022/09/03 15:46:55;;;;;;;8.63;2.80;;;30.10;99.50;;;;;;8242919;28;20125;-79
2022/09/03 15:51:25;;;;;;;1.52;1.10;;;30.10;98.20;;;;;;8244025;28;20027;-80
2022/09/03 15:55:36;;;;;;;2.20;1.55;;;31.00;96.30;;;;;;8221834;28;20034;-81
2022/09/03 16:00:00;;;;;;;2.85;1.33;;;31.60;93.30;;;;;;8212588;28;20024;-79
2022/09/03 16:04:15;;;;;;;1.45;1.23;;;29.90;94.50;;;;;;8211590;28;20034;-81
2022/09/03 16:08:31;;;;;;;1.60;1.20;;;27.50;99.10;;;;;;8219657;28;20050;-81
2022/09/03 16:12:41;;;;;;;1.15;1.05;;;24.80;99.90;;;;;;8209529;28;20058;-81
2022/09/03 16:16:47;;;;;;;1.83;1.48;;;23.20;99.90;;;;;;8226680;28;20035;-80
2022/09/03 16:21:04;;;;;;;1.60;1.15;;;22.50;99.90;;;;;;8205269;28;20035;-81
2022/09/03 16:25:16;;;;;;;7.15;1.98;;;22.00;99.90;;;;;;8223122;28;20023;-80
2022/09/03 16:29:24;;;;;;;4.32;1.10;;;21.90;99.90;;;;;;8209814;28;20027;-80
2022/09/03 16:33:37;;;;;;;1.27;1.17;;;21.60;99.90;;;;;;8200029;28;20023;-81
2022/09/03 16:38:09;;;;;;;1.33;1.17;;;21.30;99.90;;;;;;8226704;28;20026;-80
2022/09/03 16:42:12;;;;;;;2.63;1.35;;;21.20;99.90;;;;;;8204842;28;20424;-80
2022/09/03 16:46:54;;;;;;;2.45;1.25;;;21.00;99.90;;;;;;8201921;28;20659;-81
2022/09/03 16:51:11;;;;;;;1.33;1.20;;;20.90;99.90;;;;;;8180339;28;20041;-80
2022/09/03 16:55:53;;;;;;;2.05;1.20;;;20.90;99.90;;;;;;8202933;28;20042;-80
2022/09/03 17:00:13;;;;;;;2.55;1.90;;;20.60;99.90;;;;;;8218612;28;20436;-80
2022/09/03 17:04:35;;;;;;;11.32;8.02;;;20.30;99.90;;;;;;8227859;28;20070;-80
2022/09/03 17:08:51;;;;;;;4.78;4.10;;;20.00;99.90;;;;;;8232123;28;20038;-81
2022/09/03 17:13:20;;;;;;;3.05;2.15;;;19.70;99.90;;;;;;8223018;28;20045;-81
2022/09/03 17:17:36;;;;;;;6.38;2.83;;;19.40;99.90;;;;;;8217865;28;20031;-80
2022/09/03 17:21:47;;;;;;;4.40;2.20;;;19.30;99.90;;;;;;8218706;28;20062;-80
2022/09/03 17:25:55;;;;;;;3.05;2.60;;;19.20;99.90;;;;;;8227623;28;20022;-80
2022/09/03 17:30:15;;;;;;;2.22;1.60;;;19.00;99.90;;;;;;8217573;28;20555;-79
2022/09/03 17:34:28;;;;;;;2.38;1.90;;;19.00;99.90;;;;;;8219554;28;20027;-80
2022/09/03 17:38:47;;;;;;;2.13;1.50;;;18.70;99.90;;;;;;8227970;28;20075;-80
2022/09/03 17:42:55;;;;;;;2.33;1.67;;;18.40;99.90;;;;;;8234894;28;20033;-79
2022/09/03 17:47:20;;;;;;;2.40;1.48;;;18.20;99.90;;;;;;8217200;28;20022;-79
2022/09/03 17:51:21;;;;;;;2.25;1.20;;;18.10;99.90;;;;;;8224346;28;20477;-80
2022/09/03 17:55:54;;;;;;;2.67;1.95;;;18.00;99.90;;;;;;8204630;28;20034;-80
2022/09/03 18:00:11;;;;;;;2.10;1.85;;;17.60;99.90;;;;;;8217147;28;20050;-79
2022/09/03 18:04:30;;;;;;;2.65;2.13;;;17.30;99.90;;;;;;8211353;28;20154;-81
2022/09/03 18:08:59;;;;;;;3.08;1.98;;;17.30;99.90;;;;;;8218376;28;20042;-80
2022/09/03 18:13:20;;;;;;;3.30;2.10;;;17.00;99.90;;;;;;8217560;28;20116;-80
2022/09/03 18:17:40;;;;;;;3.87;2.20;;;16.90;99.90;;;;;;8217566;28;20048;-80
2022/09/03 20:12:07;;;;;;;3.88;2.20;;;14.10;99.90;;;;;;8230121;28;20329;-80
2022/09/03 20:16:25;;;;;;;3.00;2.45;;;14.00;99.90;;;;;;8203984;28;20031;-79
2022/09/03 20:20:51;;;;;;;3.25;2.70;;;13.80;99.90;;;;;;8233230;28;20094;-79
2022/09/03 20:25:05;;;;;;;3.53;2.60;;;13.80;99.90;;;;;;8235991;28;20054;-80
2022/09/03 20:29:35;;;;;;;3.42;2.60;;;13.90;99.90;;;;;;8205956;28;20031;-80
2022/09/03 20:33:57;;;;;;;3.45;2.50;;;13.80;99.90;;;;;;8216632;28;20030;-80
2022/09/03 20:38:20;;;;;;;4.13;2.60;;;13.90;99.90;;;;;;8235457;28;20027;-80
2022/09/03 20:42:41;;;;;;;3.47;2.38;;;13.90;99.90;;;;;;8204047;28;20753;-80
2022/09/03 20:47:09;;;;;;;2.38;2.17;;;14.00;99.90;;;;;;8225639;28;20517;-80
2022/09/03 20:51:20;;;;;;;3.13;2.13;;;13.90;99.90;;;;;;8299236;23;20424;-91
2022/09/03 20:55:42;;;;;;;2.72;2.40;;;13.70;99.90;;;;;;8313112;28;20101;-92
2022/09/03 21:00:03;;;;;;;4.55;2.47;;;13.60;99.90;;;;;;8299508;28;20021;-92
2022/09/03 21:04:38;;;;;;;2.72;2.38;;;13.60;99.90;;;;;;8326084;28;20026;-91
2022/09/03 21:09:04;;;;;;;3.25;2.33;;;13.70;99.90;;;;;;8315716;28;20029;-92
2022/09/03 21:13:08;;;;;;;2.60;2.20;;;13.50;99.90;;;;;;8305625;28;20037;-92
2022/09/03 21:17:27;;;;;;;2.78;2.28;;;13.40;99.90;;;;;;8319255;28;20569;-92
2022/09/03 21:21:58;;;;;;;2.42;2.20;;;13.30;99.90;;;;;;8326760;28;20033;-92
2022/09/03 21:26:08;;;;;;;5.75;2.50;;;13.10;99.90;;;;;;8333680;28;20025;-92
2022/09/03 21:30:17;;;;;;;6.57;2.42;;;13.10;99.90;;;;;;8327101;28;20072;-92
2022/09/03 21:34:37;;;;;;;3.85;2.55;;;13.00;99.90;;;;;;8328123;28;20014;-92
2022/09/03 21:38:38;;;;;;;4.13;2.53;;;12.90;99.90;;;;;;8339573;28;20064;-91
2022/09/03 21:42:51;;;;;;;3.13;2.72;;;12.90;99.90;;;;;;8306193;28;20027;-92
2022/09/03 21:47:04;;;;;;;4.30;3.00;;;13.00;99.90;;;;;;8320822;28;20020;-93
2022/09/03 21:51:20;;;;;;;5.78;2.50;;;13.00;99.90;;;;;;8316338;28;20041;-92
2022/09/03 21:55:48;;;;;;;3.65;2.58;;;12.90;99.90;;;;;;8328340;28;20472;-92
2022/09/03 22:00:07;;;;;;;3.33;2.50;;;12.90;99.90;;;;;;8320499;28;20046;-92
2022/09/03 22:04:08;;;;;;;4.63;2.70;;;12.90;99.90;;;;;;8311302;28;20023;-91
2022/09/03 22:08:22;;;;;;;4.53;2.90;;;12.80;99.90;;;;;;8319338;28;20026;-92
2022/09/03 22:12:37;;;;;;;3.58;2.80;;;13.00;99.90;;;;;;8288267;28;20499;-92
2022/09/03 22:16:49;;;;;;;3.55;2.72;;;13.00;99.90;;;;;;8305940;28;20540;-91
2022/09/03 22:21:18;;;;;;;3.88;2.80;;;13.20;99.90;;;;;;8335751;28;20033;-91
2022/09/03 22:25:30;;;;;;;2.75;2.35;;;13.10;99.90;;;;;;8312592;28;20025;-92
2022/09/03 22:30:01;;;;;;;4.13;2.70;;;13.00;99.90;;;;;;8335965;28;20117;-92
2022/09/03 22:34:24;;;;;;;3.80;2.53;;;12.90;99.90;;;;;;8319384;28;20024;-92
2022/09/03 22:38:25;;;;;;;2.92;2.63;;;12.80;99.90;;;;;;8329011;28;20031;-92
2022/09/03 22:42:53;;;;;;;3.70;2.58;;;12.80;99.90;;;;;;8334688;28;20021;-92
2022/09/03 22:47:13;;;;;;;2.90;2.45;;;12.80;99.90;;;;;;8316188;28;20052;-91
2022/09/03 22:51:16;;;;;;;3.65;2.63;;;12.80;99.90;;;;;;8318026;28;20080;-92
2022/09/03 22:55:24;;;;;;;6.00;2.80;;;12.90;99.90;;;;;;8324951;28;20066;-91
2022/09/03 22:59:34;;;;;;;3.60;3.03;;;12.70;99.90;;;;;;8298553;28;20017;-91
2022/09/03 23:03:49;;;;;;;;;;;12.70;99.90;;;;;;8310632;28;20075;-92
2022/09/03 23:07:55;;;;;;;3.03;2.42;;;12.70;99.90;;;;;;8317459;28;19972;-92
2022/09/03 23:12:00;;;;;;;2.88;2.30;;;12.70;99.90;;;;;;8329761;28;20025;-92
2022/09/03 23:16:10;;;;;;;3.10;2.72;;;12.70;99.90;;;;;;8339156;28;20037;-92
2022/09/03 23:20:23;;;;;;;3.17;2.60;;;12.60;99.90;;;;;;8329243;28;20454;-92
2022/09/03 23:24:27;;;;;;;4.32;2.55;;;12.40;99.90;;;;;;8321882;28;20024;-92
2022/09/03 23:28:35;;;;;;;5.20;2.78;;;12.40;99.90;;;;;;8329440;28;20423;-92
2022/09/03 23:32:35;;;;;;;4.00;2.85;;;12.40;99.90;;;;;;8318447;28;20028;-92
2022/09/03 23:36:55;;;;;;;3.70;2.75;;;12.50;99.90;;;;;;8335208;28;20601;-92